Airfield :
LOGIN :

Register | Disclaimer

   EN    FR    IT 

 










Legend :    VFR   Marginal VFR   IFR   Intensive IFR   Very Intensive IFR
Visi :
Ceiling :
>= 8 km
>= 3000ft
5 to 8 km
1000 to 3000 ft
1500m to 5 km
500 to 1000 ft
800 to 1500m
200 to 500 ft
< 800m
< 200 ft
Symbols :   Thunderstorms  Fog  Heavy snow  Heavy precipitations  Wind > 20 kt
SIGMETs :     Misc.  Thunderstorms  Icing  Turbulence  Mountain Waves  Volcanic Ashes







- Airport Elevation : 15 ft
- IATA code : BHD
- Download approach charts


EGAC - George Best Belfast City

CURRENT METAR :
  • 241150Z AUTO 11011KT 9999 NCD 14/08 Q0990

EXPIRED METARs :
  • 241120Z AUTO 10013KT 9999 NCD 14/08 Q0991
  • 241050Z AUTO 10010KT 030V120 9999 NCD 14/09 Q0991
  • 241020Z AUTO 07011KT 050V110 9999 NCD 13/08 Q0991
  • 240950Z AUTO 09011KT 050V130 9999 NCD 12/08 Q0991
  • 240920Z AUTO 07010KT 040V110 9999 FEW018/// 12/08 Q0992

TAF TAF EGAC
Valid from the 24 at 12:00 until the 24 at 21:00 UTC


241101Z 2412/2421 06011KT 9999 FEW020 SCT035
PROB30
TEMPO 2412/2418 8000
PROB40
TEMPO 2419/2421 7000 SHRA BKN014
ATIS : +44 02890 935 124
No reported NOTAMs for that airfield.



MET'MAP, your aeronautical weather chart ! - Copyright ORBIFLY December 2007 - Disclaimer

ORBIFLY MET'MAP TEAM :

Programming & Development : Alexandra Zaïnal
Concept & Development : Baudouin d'Aumeries
Co-Development & Prog : Marc-Olivier Méhu
Technical & hardware support : Manuel Goepfert

Contact : metmap@orbifly.com




SOURCES & CREDITS :

   NOAA